Time;durP1;ratioP1;P1;durP2;ratioP2;P2;SDS_P1;SDS_P2;PMS_P1;PMS_P2;Temp;Humidity;BMP_temperature;BMP_pressure;BME280_temperature;BME280_humidity;BME280_pressure;Samples;Min_cycle;Max_cycle;Signal;HPM_P1;HPM_P2
2022/05/26 00:02:08;;;;;;;;;;;13.30;99.90;;;;;;5083303;28;20142;-69
2022/05/26 00:04:35;;;;;;;;;;;13.20;99.90;;;;;;5072129;28;19927;-69
2022/05/26 00:07:02;;;;;;;;;;;13.20;99.90;;;;;;5070382;28;19924;-69
2022/05/26 00:09:28;;;;;;;;;;;13.10;99.90;;;;;;5068598;28;19928;-69
2022/05/26 00:11:55;;;;;;;;;;;13.10;99.90;;;;;;5084553;28;19920;-69
2022/05/26 00:14:21;;;;;;;;;;;13.10;99.90;;;;;;5069091;28;19932;-69
2022/05/26 00:16:48;;;;;;;;;;;13.10;99.90;;;;;;5083433;28;20365;-69
2022/05/26 00:19:18;;;;;;;;;;;13.10;99.90;;;;;;5083540;28;19928;-69
2022/05/26 00:21:46;;;;;;;;;;;13.10;99.90;;;;;;5083418;28;19927;-69
2022/05/26 00:24:13;;;;;;;;;;;13.00;99.90;;;;;;5083281;28;19921;-69
2022/05/26 00:26:40;;;;;;;;;;;13.00;99.90;;;;;;5082910;28;19920;-70
2022/05/26 00:29:06;;;;;;;;;;;13.00;99.90;;;;;;5083169;28;19943;-68
2022/05/26 00:31:33;;;;;;;;;;;12.90;99.90;;;;;;5083245;28;19928;-69
2022/05/26 00:34:00;;;;;;;;;;;12.90;99.90;;;;;;5083156;28;20146;-69
2022/05/26 00:36:38;;;;;;;;;;;12.90;99.90;;;;;;5082768;28;19920;-69
2022/05/26 00:39:06;;;;;;;;;;;12.90;99.90;;;;;;5083312;28;19921;-69
2022/05/26 00:41:32;;;;;;;;;;;12.90;99.90;;;;;;5079852;28;20119;-68
2022/05/26 00:43:59;;;;;;;;;;;12.90;99.90;;;;;;5083648;28;19932;-69
2022/05/26 00:46:29;;;;;;;;;;;12.80;99.90;;;;;;5082483;28;19921;-69
2022/05/26 00:48:57;;;;;;;;;;;12.80;99.90;;;;;;5083194;28;20200;-69
2022/05/26 00:51:26;;;;;;;;;;;12.80;99.90;;;;;;5079642;28;19983;-68
2022/05/26 00:53:56;;;;;;;;;;;12.70;99.90;;;;;;5079944;28;19927;-69
2022/05/26 00:56:25;;;;;;;;;;;12.70;99.90;;;;;;5081859;28;19921;-69
2022/05/26 00:58:55;;;;;;;;;;;12.70;99.90;;;;;;5083161;28;19928;-69
2022/05/26 01:01:22;;;;;;;;;;;12.70;99.90;;;;;;5082785;28;20232;-69
2022/05/26 01:03:52;;;;;;;;;;;12.70;99.90;;;;;;5074924;28;19929;-69
2022/05/26 01:06:21;;;;;;;;;;;12.70;99.90;;;;;;5069281;28;19928;-69
2022/05/26 01:08:50;;;;;;;;;;;12.80;99.90;;;;;;5083002;28;19921;-68
2022/05/26 01:11:18;;;;;;;;;;;12.80;99.90;;;;;;5082767;28;20121;-69
2022/05/26 01:13:47;;;;;;;;;;;12.70;99.90;;;;;;5083195;28;19920;-69
2022/05/26 01:16:20;;;;;;;;;;;12.70;99.90;;;;;;5082608;28;19924;-69
2022/05/26 01:18:51;;;;;;;;;;;12.70;99.90;;;;;;5082973;28;19927;-69
2022/05/26 01:21:19;;;;;;;;;;;12.60;99.90;;;;;;5083044;28;19927;-69
2022/05/26 01:24:05;;;;;;;;;;;12.60;99.90;;;;;;5082672;28;19920;-69
2022/05/26 01:26:42;;;;;;;;;;;12.60;99.90;;;;;;5082163;28;19920;-69
2022/05/26 01:29:24;;;;;;;;;;;12.60;99.90;;;;;;5082433;28;19924;-69
2022/05/26 01:31:53;;;;;;;;;;;12.60;99.90;;;;;;5070600;28;19934;-69
2022/05/26 01:34:25;;;;;;;;;;;12.60;99.90;;;;;;5082694;28;19921;-69
2022/05/26 01:36:57;;;;;;;;;;;12.60;99.90;;;;;;5082433;28;19921;-69
2022/05/26 01:39:28;;;;;;;;;;;12.50;99.90;;;;;;5082607;28;20127;-69
2022/05/26 01:42:02;;;;;;;;;;;12.50;99.90;;;;;;5080022;28;19927;-69
2022/05/26 01:44:32;;;;;;;;;;;12.50;99.90;;;;;;5082737;28;19927;-69
2022/05/26 01:47:03;;;;;;;;;;;12.50;99.90;;;;;;5081999;28;20238;-69
2022/05/26 01:49:34;;;;;;;;;;;12.50;99.90;;;;;;5083044;28;19921;-69
2022/05/26 01:52:03;;;;;;;;;;;12.50;99.90;;;;;;5081733;28;19924;-69
2022/05/26 01:54:32;;;;;;;;;;;12.50;99.90;;;;;;5084489;28;19927;-69
2022/05/26 01:57:00;;;;;;;;;;;12.50;99.90;;;;;;5085836;28;19924;-69
2022/05/26 01:59:28;;;;;;;;;;;12.50;99.90;;;;;;5086463;28;19920;-69
2022/05/26 02:01:56;;;;;;;;;;;12.50;99.90;;;;;;5085770;28;19934;-69
2022/05/26 02:04:26;;;;;;;;;;;12.50;99.90;;;;;;5081598;28;20155;-68
2022/05/26 02:06:55;;;;;;;;;;;12.50;99.90;;;;;;5080977;28;19926;-69
2022/05/26 02:09:23;;;;;;;;;;;12.60;99.90;;;;;;5086177;28;19927;-69
2022/05/26 02:11:53;;;;;;;;;;;12.60;99.90;;;;;;5086564;28;19933;-69
2022/05/26 02:14:23;;;;;;;;;;;12.70;99.90;;;;;;5087474;28;19920;-69
2022/05/26 02:16:52;;;;;;;;;;;12.70;99.90;;;;;;5085441;28;19935;-70
2022/05/26 02:19:20;;;;;;;;;;;12.80;99.90;;;;;;5085833;28;19927;-69
2022/05/26 02:21:55;;;;;;;;;;;12.80;99.90;;;;;;5085764;28;20111;-69
2022/05/26 02:24:24;;;;;;;;;;;12.90;99.90;;;;;;5085858;28;19927;-69
2022/05/26 02:26:51;;;;;;;;;;;12.90;99.90;;;;;;5085201;28;19920;-69
2022/05/26 02:32:03;;;;;;;;;;;13.10;99.90;;;;;;5085683;28;19939;-69
2022/05/26 02:34:30;;;;;;;;;;;13.10;99.90;;;;;;5085778;28;19921;-69
2022/05/26 02:36:59;;;;;;;;;;;13.20;99.90;;;;;;5085258;28;19920;-68
2022/05/26 02:39:25;;;;;;;;;;;13.10;99.90;;;;;;5085920;28;20226;-69
2022/05/26 02:41:54;;;;;;;;;;;13.20;99.90;;;;;;5083129;28;19928;-69
2022/05/26 02:44:21;;;;;;;;;;;13.20;99.90;;;;;;5085442;28;20151;-69
2022/05/26 02:46:53;;;;;;;;;;;13.20;99.90;;;;;;5084882;28;19927;-69
2022/05/26 02:49:26;;;;;;;;;;;13.20;99.90;;;;;;5085488;28;20160;-69
2022/05/26 02:51:59;;;;;;;;;;;13.20;99.90;;;;;;5084078;28;19920;-69
2022/05/26 02:54:31;;;;;;;;;;;13.20;99.90;;;;;;5074540;28;19920;-69
2022/05/26 02:57:05;;;;;;;;;;;13.30;99.90;;;;;;5075919;28;19920;-69
2022/05/26 02:59:34;;;;;;;;;;;13.30;99.90;;;;;;5066345;28;19921;-69
2022/05/26 03:02:04;;;;;;;;;;;13.30;99.90;;;;;;5084594;28;19927;-69
2022/05/26 03:04:33;;;;;;;;;;;13.20;99.90;;;;;;5084432;28;20116;-69
2022/05/26 03:07:01;;;;;;;;;;;13.20;99.90;;;;;;5081166;28;19927;-68
2022/05/26 03:09:33;;;;;;;;;;;13.20;99.90;;;;;;5084938;28;19926;-69
2022/05/26 03:11:59;;;;;;;;;;;13.30;99.90;;;;;;5085118;28;19920;-69
2022/05/26 03:14:27;;;;;;;;;;;13.30;99.90;;;;;;5084603;28;19927;-69
2022/05/26 03:16:53;;;;;;;;;;;13.30;99.90;;;;;;5084656;28;20200;-69
2022/05/26 03:19:20;;;;;;;;;;;13.30;99.90;;;;;;5076049;28;19920;-69
2022/05/26 03:21:47;;;;;;;;;;;13.30;99.90;;;;;;5078053;28;19935;-69
2022/05/26 03:24:14;;;;;;;;;;;13.30;99.90;;;;;;5081825;28;20112;-69
2022/05/26 03:26:42;;;;;;;;;;;13.30;99.90;;;;;;5064403;28;19920;-69
2022/05/26 03:29:08;;;;;;;;;;;13.30;99.90;;;;;;5064642;28;19927;-69
2022/05/26 03:31:35;;;;;;;;;;;13.30;99.90;;;;;;5071151;28;19920;-69
2022/05/26 03:42:17;;;;;;;;;;;13.20;99.90;;;;;;5083220;28;19938;-69
2022/05/26 03:44:45;;;;;;;;;;;13.10;99.90;;;;;;5084369;28;19920;-69
2022/05/26 03:47:11;;;;;;;;;;;13.10;99.90;;;;;;5083258;28;19920;-69
2022/05/26 03:49:38;;;;;;;;;;;13.10;99.90;;;;;;5084540;28;20227;-69
2022/05/26 03:52:05;;;;;;;;;;;13.20;99.90;;;;;;5079990;28;19920;-69
2022/05/26 03:54:33;;;;;;;;;;;13.20;99.90;;;;;;5080810;28;19939;-69
2022/05/26 03:57:00;;;;;;;;;;;13.30;99.90;;;;;;5083542;28;20204;-69
2022/05/26 03:59:27;;;;;;;;;;;13.30;99.90;;;;;;5084051;28;19927;-69
2022/05/26 04:01:54;;;;;;;;;;;13.30;99.90;;;;;;5083923;28;20154;-69
2022/05/26 04:04:21;;;;;;;;;;;13.30;99.90;;;;;;5079783;28;19931;-69
2022/05/26 04:06:48;;;;;;;;;;;13.30;99.90;;;;;;5071513;28;19927;-69
2022/05/26 04:09:15;;;;;;;;;;;13.30;99.90;;;;;;5083562;28;19920;-69
2022/05/26 04:11:41;;;;;;;;;;;13.30;99.90;;;;;;5083369;28;20222;-69
2022/05/26 04:14:08;;;;;;;;;;;13.40;99.90;;;;;;5083520;28;19920;-69
2022/05/26 04:16:36;;;;;;;;;;;13.40;99.90;;;;;;5082785;28;20112;-69
2022/05/26 04:19:03;;;;;;;;;;;13.40;99.90;;;;;;5083591;28;20241;-69
2022/05/26 04:21:30;;;;;;;;;;;13.40;99.90;;;;;;5083619;28;19955;-69
2022/05/26 04:23:56;;;;;;;;;;;13.40;99.90;;;;;;5083343;28;19920;-69
2022/05/26 04:26:23;;;;;;;;;;;13.40;99.90;;;;;;5082844;28;20123;-69
2022/05/26 04:28:50;;;;;;;;;;;13.40;99.90;;;;;;5083387;28;19920;-69
2022/05/26 04:31:17;;;;;;;;;;;13.40;99.90;;;;;;5083458;28;19974;-69
2022/05/26 04:33:45;;;;;;;;;;;13.50;99.90;;;;;;5083686;28;19921;-69
2022/05/26 04:36:12;;;;;;;;;;;13.50;99.90;;;;;;5082676;28;19920;-69
2022/05/26 04:38:39;;;;;;;;;;;13.50;99.90;;;;;;5083220;28;20234;-69
2022/05/26 04:41:07;;;;;;;;;;;13.50;99.90;;;;;;5081083;28;19980;-69
2022/05/26 04:43:34;;;;;;;;;;;13.50;99.90;;;;;;5083297;28;20101;-69
2022/05/26 04:46:01;;;;;;;;;;;13.50;99.90;;;;;;5082680;28;19920;-69
2022/05/26 04:48:28;;;;;;;;;;;13.50;99.90;;;;;;5083346;28;19944;-69
2022/05/26 04:50:56;;;;;;;;;;;13.50;99.90;;;;;;5082853;28;19920;-69
2022/05/26 04:53:22;;;;;;;;;;;13.50;99.90;;;;;;5074668;28;19927;-69
2022/05/26 04:55:52;;;;;;;;;;;13.60;99.90;;;;;;5082326;28;19920;-69
2022/05/26 04:58:19;;;;;;;;;;;13.60;99.90;;;;;;5083473;28;19992;-69
2022/05/26 05:00:46;;;;;;;;;;;13.60;99.90;;;;;;5083235;28;20336;-69
2022/05/26 05:03:12;;;;;;;;;;;13.70;99.90;;;;;;5083205;28;19920;-69
2022/05/26 05:05:39;;;;;;;;;;;13.70;99.90;;;;;;5073826;28;19928;-69
2022/05/26 05:08:07;;;;;;;;;;;13.80;99.90;;;;;;5083037;28;19920;-69
2022/05/26 05:10:33;;;;;;;;;;;13.90;99.90;;;;;;5082823;28;19929;-69
2022/05/26 05:13:00;;;;;;;;;;;13.90;99.90;;;;;;5083268;28;19927;-69
2022/05/26 05:15:29;;;;;;;;;;;13.90;99.90;;;;;;5082411;28;19927;-70
2022/05/26 05:17:55;;;;;;;;;;;13.90;99.90;;;;;;5082998;28;19926;-69
2022/05/26 05:20:22;;;;;;;;;;;13.90;99.90;;;;;;5082670;28;19924;-69
2022/05/26 05:22:50;;;;;;;;;;;13.90;99.90;;;;;;5082771;28;19951;-69
2022/05/26 05:25:21;;;;;;;;;;;13.90;99.90;;;;;;5081997;28;20220;-69
2022/05/26 05:27:50;;;;;;;;;;;13.90;99.90;;;;;;5082382;28;20112;-69
2022/05/26 05:30:18;;;;;;;;;;;14.10;99.90;;;;;;5083268;28;20216;-69
2022/05/26 05:32:46;;;;;;;;;;;14.10;99.90;;;;;;5076073;28;19921;-69
2022/05/26 05:35:15;;;;;;;;;;;14.10;99.90;;;;;;5086383;28;19920;-69
2022/05/26 05:37:41;;;;;;;;;;;14.10;99.90;;;;;;5086421;28;20211;-69
2022/05/26 05:40:08;;;;;;;;;;;14.20;99.90;;;;;;5084614;28;19920;-68
2022/05/26 05:42:36;;;;;;;;;;;14.20;99.90;;;;;;5086431;28;20207;-69
2022/05/26 05:45:03;;;;;;;;;;;14.40;99.90;;;;;;5086717;28;19924;-69
2022/05/26 05:47:30;;;;;;;;;;;14.50;99.90;;;;;;5085903;28;19920;-69
2022/05/26 05:49:56;;;;;;;;;;;14.60;99.90;;;;;;5085641;28;19935;-69
2022/05/26 05:52:23;;;;;;;;;;;14.70;99.90;;;;;;5092195;22;21440;-67
2022/05/26 05:54:50;;;;;;;;;;;14.80;99.90;;;;;;5075825;28;19950;-67
2022/05/26 05:57:17;;;;;;;;;;;14.90;99.90;;;;;;5077179;28;20163;-66
2022/05/26 05:59:45;;;;;;;;;;;14.90;99.90;;;;;;5085653;28;19929;-66
2022/05/26 06:02:12;;;;;;;;;;;15.00;99.90;;;;;;5067908;28;20229;-68
2022/05/26 06:04:42;;;;;;;;;;;15.00;99.90;;;;;;5077752;28;20269;-67
2022/05/26 06:07:13;;;;;;;;;;;15.00;99.90;;;;;;5065811;28;19927;-66
2022/05/26 06:09:39;;;;;;;;;;;15.00;99.90;;;;;;5083806;28;19920;-67
2022/05/26 06:12:07;;;;;;;;;;;15.10;99.90;;;;;;5085713;28;19927;-67
2022/05/26 06:14:34;;;;;;;;;;;15.10;99.90;;;;;;5086038;28;19927;-67
2022/05/26 06:17:02;;;;;;;;;;;15.10;99.90;;;;;;5083124;28;19927;-67
2022/05/26 06:19:28;;;;;;;;;;;15.20;99.90;;;;;;5085587;28;20195;-67
2022/05/26 06:21:55;;;;;;;;;;;15.20;99.90;;;;;;5085995;28;20119;-67
2022/05/26 06:24:25;;;;;;;;;;;15.20;99.90;;;;;;5085654;28;19925;-67
2022/05/26 06:26:51;;;;;;;;;;;15.30;99.90;;;;;;5085200;28;19928;-67
2022/05/26 06:37:40;;;;;;;;;;;15.40;99.90;;;;;;5081975;28;19983;-67
2022/05/26 06:40:07;;;;;;;;;;;15.50;99.90;;;;;;5084779;28;19928;-68
2022/05/26 06:42:34;;;;;;;;;;;15.60;99.90;;;;;;5084950;28;20242;-67
2022/05/26 06:45:00;;;;;;;;;;;15.70;99.90;;;;;;5085549;28;20103;-68
2022/05/26 06:47:28;;;;;;;;;;;15.70;99.90;;;;;;5084905;28;19921;-67
2022/05/26 06:49:55;;;;;;;;;;;15.70;99.90;;;;;;5085254;28;19955;-67
2022/05/26 06:52:22;;;;;;;;;;;15.60;99.90;;;;;;5085397;28;20108;-67
2022/05/26 06:54:49;;;;;;;;;;;15.70;99.90;;;;;;5081712;28;19932;-68
2022/05/26 06:57:16;;;;;;;;;;;15.70;99.90;;;;;;5081569;28;19980;-67
2022/05/26 06:59:43;;;;;;;;;;;15.70;99.90;;;;;;5074659;28;19928;-67
2022/05/26 07:02:11;;;;;;;;;;;15.80;99.90;;;;;;5068134;28;19935;-68
2022/05/26 07:04:40;;;;;;;;;;;15.90;99.90;;;;;;5076879;28;19927;-67
2022/05/26 07:07:06;;;;;;;;;;;15.80;99.90;;;;;;5077605;28;19927;-66
2022/05/26 07:09:33;;;;;;;;;;;15.80;99.90;;;;;;5073620;28;20200;-68
2022/05/26 07:12:00;;;;;;;;;;;15.80;99.90;;;;;;5069484;28;20117;-67
2022/05/26 07:14:28;;;;;;;;;;;15.80;99.90;;;;;;5080495;28;19927;-67
2022/05/26 07:16:55;;;;;;;;;;;15.90;99.90;;;;;;5083843;28;19928;-67
2022/05/26 07:19:22;;;;;;;;;;;15.90;99.90;;;;;;5078837;28;20216;-67
2022/05/26 07:21:50;;;;;;;;;;;16.00;99.90;;;;;;5077410;28;20252;-67
2022/05/26 07:24:17;;;;;;;;;;;16.00;99.90;;;;;;5076539;28;19926;-67
2022/05/26 07:26:43;;;;;;;;;;;16.00;99.90;;;;;;5082235;28;19926;-66
2022/05/26 07:29:10;;;;;;;;;;;16.00;99.90;;;;;;5076257;28;20216;-67
2022/05/26 07:31:37;;;;;;;;;;;16.00;99.90;;;;;;5084598;28;19943;-67
2022/05/26 07:34:04;;;;;;;;;;;16.00;99.90;;;;;;5084575;28;19927;-68
2022/05/26 07:42:03;;;;;;;;;;;16.20;99.90;;;;;;5076848;28;19928;-66
2022/05/26 07:44:32;;;;;;;;;;;16.30;99.90;;;;;;5084484;28;19920;-66
2022/05/26 07:46:59;;;;;;;;;;;16.40;99.90;;;;;;5070113;28;19971;-65
2022/05/26 07:49:25;;;;;;;;;;;16.30;99.90;;;;;;5079538;28;19924;-67
2022/05/26 07:51:52;;;;;;;;;;;16.30;99.90;;;;;;5083975;28;19994;-67
2022/05/26 07:54:20;;;;;;;;;;;16.30;99.90;;;;;;5083919;28;19998;-66
2022/05/26 07:56:49;;;;;;;;;;;16.20;99.90;;;;;;5079545;28;19928;-68
2022/05/26 07:59:15;;;;;;;;;;;16.20;99.90;;;;;;5075392;28;19927;-69
2022/05/26 08:01:42;;;;;;;;;;;16.30;99.90;;;;;;5074260;28;19926;-66
2022/05/26 08:04:08;;;;;;;;;;;16.30;99.90;;;;;;5078831;28;19921;-66
2022/05/26 08:06:35;;;;;;;;;;;16.40;99.90;;;;;;5080784;28;20111;-67
2022/05/26 08:09:02;;;;;;;;;;;16.40;99.90;;;;;;5068227;28;19921;-67
2022/05/26 08:11:30;;;;;;;;;;;16.40;99.90;;;;;;5082614;28;20406;-66
2022/05/26 08:13:57;;;;;;;;;;;16.50;99.90;;;;;;5077451;28;19943;-67
2022/05/26 08:16:23;;;;;;;;;;;16.50;99.90;;;;;;5075994;28;19920;-67
2022/05/26 08:18:50;;;;;;;;;;;16.60;99.90;;;;;;5081112;28;19920;-67
2022/05/26 08:21:18;;;;;;;;;;;16.60;99.90;;;;;;5071659;28;19920;-67
2022/05/26 08:23:45;;;;;;;;;;;16.70;99.90;;;;;;5074403;28;20252;-67
2022/05/26 08:26:11;;;;;;;;;;;16.70;99.90;;;;;;5074544;28;19927;-67
2022/05/26 08:28:39;;;;;;;;;;;16.70;99.90;;;;;;5078841;28;19928;-67
2022/05/26 08:31:08;;;;;;;;;;;16.70;99.90;;;;;;5082650;28;20337;-67
2022/05/26 08:33:35;;;;;;;;;;;16.70;99.90;;;;;;5069400;28;19966;-66
2022/05/26 08:36:02;;;;;;;;;;;16.60;99.90;;;;;;5083575;28;19926;-67
2022/05/26 08:38:29;;;;;;;;;;;16.70;99.90;;;;;;5084257;28;19952;-68
2022/05/26 08:40:55;;;;;;;;;;;16.80;99.90;;;;;;5083830;28;19920;-67
2022/05/26 08:43:24;;;;;;;;;;;17.00;99.90;;;;;;5083859;28;19925;-67
2022/05/26 08:45:53;;;;;;;;;;;16.90;99.90;;;;;;5080515;28;19966;-67
2022/05/26 08:48:34;;;;;;;;;;;17.00;99.90;;;;;;5068443;28;19920;-67
2022/05/26 08:51:02;;;;;;;;;;;17.10;99.90;;;;;;5063794;28;19921;-66
2022/05/26 08:53:33;;;;;;;;;;;17.00;99.90;;;;;;5074783;28;19928;-67
2022/05/26 08:56:00;;;;;;;;;;;17.00;99.90;;;;;;5075361;28;19921;-67
2022/05/26 08:58:28;;;;;;;;;;;16.90;99.90;;;;;;5076519;28;19947;-67
2022/05/26 09:00:58;;;;;;;;;;;17.00;99.90;;;;;;5081287;28;19978;-66
2022/05/26 09:03:26;;;;;;;;;;;17.00;99.90;;;;;;5083358;28;19921;-67
2022/05/26 09:05:58;;;;;;;;;;;17.00;99.90;;;;;;5083122;28;19927;-67
2022/05/26 09:13:56;;;;;;;;;;;17.10;99.90;;;;;;5063199;28;20120;-66
2022/05/26 09:16:23;;;;;;;;;;;17.10;99.90;;;;;;5062605;28;19969;-64
2022/05/26 09:19:05;;;;;;;;;;;17.30;99.90;;;;;;5063118;28;19920;-66
2022/05/26 09:21:33;;;;;;;;;;;17.30;99.90;;;;;;5060912;28;19927;-66
2022/05/26 09:24:15;;;;;;;;;;;17.40;99.90;;;;;;5063236;28;19921;-65
2022/05/26 09:26:44;;;;;;;;;;;17.50;99.90;;;;;;5062307;28;19921;-66
2022/05/26 09:29:12;;;;;;;;;;;17.40;99.90;;;;;;5063263;28;19920;-65
2022/05/26 09:31:46;;;;;;;;;;;17.40;99.90;;;;;;5074068;28;20208;-64
2022/05/26 09:34:16;;;;;;;;;;;17.40;99.90;;;;;;5082261;28;19927;-65
2022/05/26 09:36:45;;;;;;;;;;;17.40;99.90;;;;;;5076286;28;20123;-65
2022/05/26 09:39:12;;;;;;;;;;;17.30;99.90;;;;;;5063068;28;19921;-66
2022/05/26 09:41:39;;;;;;;;;;;17.40;99.90;;;;;;5062764;28;19927;-65
2022/05/26 09:44:18;;;;;;;;;;;17.40;99.90;;;;;;5083068;28;20134;-64
2022/05/26 09:46:50;;;;;;;;;;;17.40;99.90;;;;;;5080524;28;19920;-64
2022/05/26 09:49:17;;;;;;;;;;;17.40;99.90;;;;;;5073972;28;20223;-64
2022/05/26 09:51:46;;;;;;;;;;;17.50;99.90;;;;;;5063531;28;19927;-68
2022/05/26 09:54:21;;;;;;;;;;;17.50;99.90;;;;;;5083089;28;20202;-63
2022/05/26 09:56:48;;;;;;;;;;;17.50;99.90;;;;;;5081338;28;19920;-62
2022/05/26 09:59:25;;;;;;;;;;;17.60;99.90;;;;;;5080725;28;19927;-64
2022/05/26 10:01:57;;;;;;;;;;;17.60;99.90;;;;;;5078773;28;19920;-64
2022/05/26 10:04:29;;;;;;;;;;;17.70;99.90;;;;;;5082647;28;19920;-64
2022/05/26 10:06:58;;;;;;;;;;;17.60;99.90;;;;;;5081821;28;19935;-64
2022/05/26 10:09:29;;;;;;;;;;;17.60;99.90;;;;;;5082381;28;19924;-64
2022/05/26 10:12:04;;;;;;;;;;;17.70;99.90;;;;;;5082894;28;19921;-64
2022/05/26 10:14:46;;;;;;;;;;;17.90;99.90;;;;;;5081159;28;19920;-65
2022/05/26 10:17:19;;;;;;;;;;;18.00;99.90;;;;;;5083697;28;19920;-66
2022/05/26 10:19:56;;;;;;;;;;;18.00;99.90;;;;;;5066431;28;19928;-65
2022/05/26 10:22:29;;;;;;;;;;;18.10;99.90;;;;;;5080460;28;20154;-66
2022/05/26 10:25:20;;;;;;;;;;;18.10;99.90;;;;;;5065316;28;19920;-66
2022/05/26 10:27:53;;;;;;;;;;;18.30;99.90;;;;;;5054231;28;19928;-66
2022/05/26 10:30:23;;;;;;;;;;;18.50;99.90;;;;;;5086115;28;19920;-66
2022/05/26 10:32:55;;;;;;;;;;;18.60;99.90;;;;;;5086090;28;20234;-66
2022/05/26 10:35:24;;;;;;;;;;;18.50;99.90;;;;;;5085443;28;19920;-66
2022/05/26 10:38:03;;;;;;;;;;;18.50;99.90;;;;;;5085825;28;19927;-66
2022/05/26 10:40:37;;;;;;;;;;;18.50;99.90;;;;;;5085899;28;19921;-66
2022/05/26 10:43:07;;;;;;;;;;;18.40;99.90;;;;;;5085176;28;20243;-66
2022/05/26 10:45:36;;;;;;;;;;;18.50;99.90;;;;;;5080507;28;19928;-66
2022/05/26 10:48:08;;;;;;;;;;;18.50;99.90;;;;;;5083618;28;19959;-66
2022/05/26 10:50:38;;;;;;;;;;;18.50;99.90;;;;;;5073592;28;19925;-66
2022/05/26 10:53:08;;;;;;;;;;;18.30;99.90;;;;;;5081553;28;19928;-66
2022/05/26 10:55:37;;;;;;;;;;;18.30;99.90;;;;;;5079824;28;19980;-66
2022/05/26 10:58:06;;;;;;;;;;;18.30;99.90;;;;;;5080164;28;19921;-66
2022/05/26 11:00:33;;;;;;;;;;;18.30;99.90;;;;;;5077955;28;20216;-65
2022/05/26 11:03:05;;;;;;;;;;;18.50;99.90;;;;;;5078163;28;19966;-66
2022/05/26 11:05:36;;;;;;;;;;;18.40;99.90;;;;;;5082436;28;19920;-66
2022/05/26 11:08:12;;;;;;;;;;;18.40;99.90;;;;;;5081563;28;19929;-66
2022/05/26 11:10:42;;;;;;;;;;;18.50;99.90;;;;;;5084762;28;19920;-66
2022/05/26 11:13:12;;;;;;;;;;;18.70;99.90;;;;;;5070323;28;19927;-66
2022/05/26 11:18:26;;;;;;;;;;;19.20;99.90;;;;;;5073762;28;19946;-66
2022/05/26 11:20:57;;;;;;;;;;;19.40;99.90;;;;;;5084388;28;19942;-66
2022/05/26 11:23:24;;;;;;;;;;;19.40;99.90;;;;;;5067820;28;19979;-66
2022/05/26 11:25:55;;;;;;;;;;;19.20;99.90;;;;;;5068597;28;19925;-66
2022/05/26 11:28:25;;;;;;;;;;;18.90;99.90;;;;;;5070772;28;19927;-66
2022/05/26 11:36:35;;;;;;;;;;;18.70;99.90;;;;;;5009439;28;19941;-66
2022/05/26 11:39:02;;;;;;;;;;;18.70;99.90;;;;;;5076452;28;20230;-66
2022/05/26 11:41:31;;;;;;;;;;;18.80;99.90;;;;;;5068094;28;19921;-66
2022/05/26 11:44:00;;;;;;;;;;;18.80;99.90;;;;;;5079742;28;20077;-66
2022/05/26 11:46:47;;;;;;;;;;;18.80;99.90;;;;;;5072944;28;20208;-66
2022/05/26 11:49:43;;;;;;;;;;;18.60;99.90;;;;;;5075735;28;19921;-66
2022/05/26 11:52:23;;;;;;;;;;;18.60;99.90;;;;;;5076102;28;19920;-66
2022/05/26 11:55:07;;;;;;;;;;;18.60;99.90;;;;;;5076264;28;19928;-65
2022/05/26 11:57:35;;;;;;;;;;;18.60;99.90;;;;;;5090543;22;19926;-66
2022/05/26 12:00:18;;;;;;;;;;;18.50;99.90;;;;;;5099777;28;19920;-67
2022/05/26 12:02:45;;;;;;;;;;;18.40;99.90;;;;;;5090028;28;19920;-67
2022/05/26 12:05:30;;;;;;;;;;;18.20;99.90;;;;;;5094710;28;19928;-67
2022/05/26 12:08:01;;;;;;;;;;;18.20;99.90;;;;;;5098271;28;19927;-67
2022/05/26 12:10:28;;;;;;;;;;;18.10;99.90;;;;;;5104607;28;19942;-67
2022/05/26 12:13:10;;;;;;;;;;;18.10;99.90;;;;;;5101342;28;19979;-67
2022/05/26 12:15:36;;;;;;;;;;;18.20;99.90;;;;;;5097096;28;19928;-67
2022/05/26 12:18:12;;;;;;;;;;;18.30;99.90;;;;;;5100832;28;19920;-67
2022/05/26 12:20:42;;;;;;;;;;;18.40;99.90;;;;;;5097305;28;19926;-67
2022/05/26 12:23:27;;;;;;;;;;;18.50;99.90;;;;;;5102731;28;20005;-67
2022/05/26 12:26:12;;;;;;;;;;;18.70;99.90;;;;;;5100511;28;19920;-67
2022/05/26 12:28:41;;;;;;;;;;;18.80;99.90;;;;;;5106592;28;21763;-67
2022/05/26 12:31:08;;;;;;;;;;;18.80;99.90;;;;;;5097943;28;19920;-68
2022/05/26 12:33:47;;;;;;;;;;;18.70;99.90;;;;;;5090862;28;19966;-67
2022/05/26 12:36:18;;;;;;;;;;;18.70;99.90;;;;;;5099038;28;19920;-68
2022/05/26 12:38:56;;;;;;;;;;;18.70;99.90;;;;;;5103569;28;19965;-67
2022/05/26 12:41:27;;;;;;;;;;;18.60;99.90;;;;;;5097263;28;19928;-68
2022/05/26 12:44:01;;;;;;;;;;;18.60;99.90;;;;;;5094307;28;19920;-67
2022/05/26 12:46:37;;;;;;;;;;;18.70;99.90;;;;;;5103719;28;19920;-67
2022/05/26 12:49:07;;;;;;;;;;;18.60;99.90;;;;;;5096464;28;19934;-68
2022/05/26 12:51:35;;;;;;;;;;;18.60;99.90;;;;;;5102976;28;20251;-67
2022/05/26 12:54:05;;;;;;;;;;;18.60;99.90;;;;;;5089276;28;19920;-67
2022/05/26 12:56:37;;;;;;;;;;;18.50;99.90;;;;;;5100487;28;20137;-67
2022/05/26 12:59:04;;;;;;;;;;;18.50;99.90;;;;;;5102512;28;19920;-67
2022/05/26 13:01:31;;;;;;;;;;;18.60;99.90;;;;;;5094566;28;20097;-67
2022/05/26 13:04:03;;;;;;;;;;;18.50;99.90;;;;;;5092336;28;19920;-67
2022/05/26 13:06:31;;;;;;;;;;;18.60;99.90;;;;;;5095336;28;19978;-67
2022/05/26 13:09:02;;;;;;;;;;;18.50;99.90;;;;;;5103182;28;19920;-68
2022/05/26 13:11:32;;;;;;;;;;;18.50;99.90;;;;;;5103860;28;19981;-68
2022/05/26 13:13:59;;;;;;;;;;;18.50;99.90;;;;;;5100269;28;19992;-67
2022/05/26 13:16:27;;;;;;;;;;;18.60;99.90;;;;;;5094471;28;19928;-67
2022/05/26 13:18:55;;;;;;;;;;;18.60;99.90;;;;;;5100435;28;19920;-68
2022/05/26 13:21:22;;;;;;;;;;;18.50;99.90;;;;;;5093693;28;19980;-67
2022/05/26 13:23:50;;;;;;;;;;;18.50;99.90;;;;;;5088215;28;19927;-67
2022/05/26 13:26:16;;;;;;;;;;;18.50;99.90;;;;;;5089566;28;19927;-67
2022/05/26 13:28:46;;;;;;;;;;;18.40;99.90;;;;;;5102197;28;19958;-67
2022/05/26 13:33:58;;;;;;;;;;;18.10;99.90;;;;;;5103367;28;19923;-67
2022/05/26 13:36:28;;;;;;;;;;;18.00;99.90;;;;;;5102423;28;20149;-68
2022/05/26 13:38:54;;;;;;;;;;;18.00;99.90;;;;;;5103240;28;19928;-67
2022/05/26 13:41:22;;;;;;;;;;;17.90;99.90;;;;;;5103405;28;19924;-67
2022/05/26 13:43:50;;;;;;;;;;;18.00;99.90;;;;;;5088682;28;19921;-68
2022/05/26 13:46:22;;;;;;;;;;;18.10;99.90;;;;;;5102543;28;19920;-66
2022/05/26 13:48:53;;;;;;;;;;;18.10;99.90;;;;;;5102930;28;19927;-67
2022/05/26 13:51:21;;;;;;;;;;;17.90;99.90;;;;;;5104348;28;19928;-67
2022/05/26 13:53:49;;;;;;;;;;;18.00;99.90;;;;;;5103761;28;19920;-67
2022/05/26 13:56:21;;;;;;;;;;;18.00;99.90;;;;;;5094412;28;19920;-69
2022/05/26 13:58:55;;;;;;;;;;;18.00;99.90;;;;;;5085871;28;19927;-67
2022/05/26 14:01:24;;;;;;;;;;;18.10;99.90;;;;;;5086926;28;19955;-67
2022/05/26 14:03:54;;;;;;;;;;;18.30;99.90;;;;;;5100405;28;19928;-67
2022/05/26 14:06:28;;;;;;;;;;;18.60;99.90;;;;;;5106166;28;19920;-68
2022/05/26 14:08:55;;;;;;;;;;;18.80;99.90;;;;;;5106485;28;19936;-68
2022/05/26 14:11:26;;;;;;;;;;;19.00;99.90;;;;;;5106647;28;20207;-68
2022/05/26 14:13:53;;;;;;;;;;;19.10;99.90;;;;;;5106509;28;19927;-68
2022/05/26 14:16:21;;;;;;;;;;;19.20;99.90;;;;;;5097216;28;19920;-67
2022/05/26 14:18:51;;;;;;;;;;;19.20;99.90;;;;;;5106451;28;19927;-68
2022/05/26 14:21:23;;;;;;;;;;;19.20;99.90;;;;;;5106990;28;19986;-67
2022/05/26 14:23:52;;;;;;;;;;;19.30;99.90;;;;;;5106410;28;19919;-67
2022/05/26 14:26:28;;;;;;;;;;;19.50;99.90;;;;;;5105895;28;19927;-67
2022/05/26 14:28:55;;;;;;;;;;;19.50;99.90;;;;;;5106388;28;19924;-67
2022/05/26 14:31:22;;;;;;;;;;;19.50;99.90;;;;;;5101264;28;19953;-68
2022/05/26 14:33:58;;;;;;;;;;;19.10;99.90;;;;;;5094386;28;19927;-67
2022/05/26 14:36:24;;;;;;;;;;;19.00;99.90;;;;;;5095905;28;19988;-67
2022/05/26 14:38:51;;;;;;;;;;;18.90;99.90;;;;;;5097814;28;19926;-67
2022/05/26 14:41:18;;;;;;;;;;;19.00;99.90;;;;;;5099348;28;20115;-67
2022/05/26 14:43:46;;;;;;;;;;;18.80;99.90;;;;;;5098904;28;19928;-69
2022/05/26 14:46:12;;;;;;;;;;;18.70;99.90;;;;;;5100556;28;19924;-69
2022/05/26 14:48:41;;;;;;;;;;;18.70;99.90;;;;;;5104056;28;19920;-67
2022/05/26 14:51:09;;;;;;;;;;;18.50;99.90;;;;;;5097332;28;19920;-68
2022/05/26 14:56:20;;;;;;;;;;;18.70;99.90;;;;;;5086556;28;19923;-67
2022/05/26 14:58:47;;;;;;;;;;;18.70;99.90;;;;;;5097041;28;20230;-68
2022/05/26 15:01:13;;;;;;;;;;;18.80;99.90;;;;;;5105557;28;19928;-68
2022/05/26 15:03:40;;;;;;;;;;;18.90;99.90;;;;;;5105011;28;19919;-68
2022/05/26 15:06:06;;;;;;;;;;;19.10;99.90;;;;;;5104758;28;20200;-69
2022/05/26 15:08:41;;;;;;;;;;;19.20;99.90;;;;;;5105341;28;19934;-68
2022/05/26 15:11:07;;;;;;;;;;;19.20;99.90;;;;;;5105377;28;19991;-68
2022/05/26 15:13:34;;;;;;;;;;;19.30;99.90;;;;;;5105679;28;19920;-68